sensor_id;sensor_type;location;lat;lon;timestamp;P1;durP1;ratioP1;P2;durP2;ratioP2
26858;SDS011;14429;48.346;16.338;2023-12-20T00:00:49;9.18;;;5.85;;
26858;SDS011;14429;48.346;16.338;2023-12-20T00:03:15;12.23;;;5.72;;
26858;SDS011;14429;48.346;16.338;2023-12-20T00:05:40;23.58;;;12.18;;
26858;SDS011;14429;48.346;16.338;2023-12-20T00:08:07;13.30;;;6.07;;
26858;SDS011;14429;48.346;16.338;2023-12-20T00:10:32;11.65;;;5.90;;
26858;SDS011;14429;48.346;16.338;2023-12-20T00:12:58;9.18;;;5.63;;
26858;SDS011;14429;48.346;16.338;2023-12-20T00:15:23;8.30;;;5.40;;
26858;SDS011;14429;48.346;16.338;2023-12-20T00:17:49;11.55;;;6.25;;
26858;SDS011;14429;48.346;16.338;2023-12-20T00:20:14;12.55;;;6.75;;
26858;SDS011;14429;48.346;16.338;2023-12-20T00:22:39;11.48;;;6.55;;
26858;SDS011;14429;48.346;16.338;2023-12-20T00:25:07;9.38;;;5.93;;
26858;SDS011;14429;48.346;16.338;2023-12-20T00:27:32;17.33;;;9.85;;
26858;SDS011;14429;48.346;16.338;2023-12-20T00:29:58;24.85;;;13.75;;
26858;SDS011;14429;48.346;16.338;2023-12-20T00:32:23;14.27;;;7.40;;
26858;SDS011;14429;48.346;16.338;2023-12-20T00:34:48;15.35;;;6.13;;
26858;SDS011;14429;48.346;16.338;2023-12-20T00:37:14;14.75;;;7.00;;
26858;SDS011;14429;48.346;16.338;2023-12-20T00:39:39;18.83;;;10.00;;
26858;SDS011;14429;48.346;16.338;2023-12-20T00:42:06;18.23;;;10.07;;
26858;SDS011;14429;48.346;16.338;2023-12-20T00:44:32;12.13;;;6.47;;
26858;SDS011;14429;48.346;16.338;2023-12-20T00:46:57;13.57;;;6.47;;
26858;SDS011;14429;48.346;16.338;2023-12-20T00:49:22;12.43;;;6.22;;
26858;SDS011;14429;48.346;16.338;2023-12-20T00:51:48;9.82;;;5.72;;
26858;SDS011;14429;48.346;16.338;2023-12-20T00:54:13;12.18;;;7.15;;
26858;SDS011;14429;48.346;16.338;2023-12-20T00:56:38;12.60;;;6.45;;
26858;SDS011;14429;48.346;16.338;2023-12-20T00:59:05;10.05;;;6.10;;
26858;SDS011;14429;48.346;16.338;2023-12-20T01:01:31;17.08;;;8.77;;
26858;SDS011;14429;48.346;16.338;2023-12-20T01:03:56;13.88;;;6.95;;
26858;SDS011;14429;48.346;16.338;2023-12-20T01:06:21;8.27;;;5.65;;
26858;SDS011;14429;48.346;16.338;2023-12-20T01:08:47;9.27;;;5.50;;
26858;SDS011;14429;48.346;16.338;2023-12-20T01:11:12;10.85;;;6.32;;
26858;SDS011;14429;48.346;16.338;2023-12-20T01:13:38;10.02;;;6.25;;
26858;SDS011;14429;48.346;16.338;2023-12-20T01:16:05;11.23;;;6.85;;
26858;SDS011;14429;48.346;16.338;2023-12-20T01:18:30;14.00;;;6.07;;
26858;SDS011;14429;48.346;16.338;2023-12-20T01:20:56;12.82;;;6.25;;
26858;SDS011;14429;48.346;16.338;2023-12-20T01:23:21;10.18;;;6.28;;
26858;SDS011;14429;48.346;16.338;2023-12-20T01:25:47;10.65;;;5.82;;
26858;SDS011;14429;48.346;16.338;2023-12-20T01:28:13;12.18;;;6.88;;
26858;SDS011;14429;48.346;16.338;2023-12-20T01:30:38;10.35;;;6.05;;
26858;SDS011;14429;48.346;16.338;2023-12-20T01:33:05;11.93;;;6.63;;
26858;SDS011;14429;48.346;16.338;2023-12-20T01:35:30;26.88;;;13.82;;
26858;SDS011;14429;48.346;16.338;2023-12-20T01:37:56;12.10;;;7.03;;
26858;SDS011;14429;48.346;16.338;2023-12-20T01:40:21;9.52;;;5.75;;
26858;SDS011;14429;48.346;16.338;2023-12-20T01:42:47;12.15;;;7.00;;
26858;SDS011;14429;48.346;16.338;2023-12-20T01:45:12;10.32;;;6.43;;
26858;SDS011;14429;48.346;16.338;2023-12-20T01:47:38;11.25;;;6.57;;
26858;SDS011;14429;48.346;16.338;2023-12-20T01:50:05;10.00;;;5.93;;
26858;SDS011;14429;48.346;16.338;2023-12-20T01:52:32;12.32;;;6.20;;
26858;SDS011;14429;48.346;16.338;2023-12-20T01:54:57;12.07;;;6.60;;
26858;SDS011;14429;48.346;16.338;2023-12-20T01:57:23;11.43;;;6.15;;
26858;SDS011;14429;48.346;16.338;2023-12-20T01:59:49;10.68;;;6.53;;
26858;SDS011;14429;48.346;16.338;2023-12-20T02:02:14;10.45;;;5.65;;
26858;SDS011;14429;48.346;16.338;2023-12-20T02:04:40;10.63;;;6.72;;
26858;SDS011;14429;48.346;16.338;2023-12-20T02:07:07;13.88;;;7.85;;
26858;SDS011;14429;48.346;16.338;2023-12-20T02:09:32;12.88;;;7.25;;
26858;SDS011;14429;48.346;16.338;2023-12-20T02:11:58;17.08;;;9.32;;
26858;SDS011;14429;48.346;16.338;2023-12-20T02:14:24;12.00;;;7.50;;
26858;SDS011;14429;48.346;16.338;2023-12-20T02:16:49;12.88;;;6.70;;
26858;SDS011;14429;48.346;16.338;2023-12-20T02:19:15;10.48;;;6.18;;
26858;SDS011;14429;48.346;16.338;2023-12-20T02:21:42;12.70;;;7.78;;
26858;SDS011;14429;48.346;16.338;2023-12-20T02:24:07;11.93;;;5.88;;
26858;SDS011;14429;48.346;16.338;2023-12-20T02:26:32;10.77;;;6.15;;
26858;SDS011;14429;48.346;16.338;2023-12-20T02:28:58;12.82;;;6.60;;
26858;SDS011;14429;48.346;16.338;2023-12-20T02:31:24;12.18;;;6.10;;
26858;SDS011;14429;48.346;16.338;2023-12-20T02:33:50;10.85;;;6.82;;
26858;SDS011;14429;48.346;16.338;2023-12-20T02:36:15;11.40;;;5.95;;
26858;SDS011;14429;48.346;16.338;2023-12-20T02:38:42;10.52;;;5.82;;
26858;SDS011;14429;48.346;16.338;2023-12-20T02:41:07;10.30;;;6.30;;
26858;SDS011;14429;48.346;16.338;2023-12-20T02:43:33;11.25;;;6.15;;
26858;SDS011;14429;48.346;16.338;2023-12-20T02:45:58;13.57;;;6.22;;
26858;SDS011;14429;48.346;16.338;2023-12-20T02:48:23;10.88;;;5.93;;
26858;SDS011;14429;48.346;16.338;2023-12-20T02:50:49;11.30;;;6.57;;
26858;SDS011;14429;48.346;16.338;2023-12-20T02:53:14;18.98;;;11.90;;
26858;SDS011;14429;48.346;16.338;2023-12-20T02:55:41;9.13;;;5.85;;
26858;SDS011;14429;48.346;16.338;2023-12-20T02:58:06;23.10;;;11.60;;
26858;SDS011;14429;48.346;16.338;2023-12-20T03:00:32;11.90;;;6.63;;
26858;SDS011;14429;48.346;16.338;2023-12-20T03:02:57;12.00;;;6.93;;
26858;SDS011;14429;48.346;16.338;2023-12-20T03:05:23;20.77;;;10.88;;
26858;SDS011;14429;48.346;16.338;2023-12-20T03:07:48;11.95;;;6.10;;
26858;SDS011;14429;48.346;16.338;2023-12-20T03:10:13;23.40;;;12.60;;
26858;SDS011;14429;48.346;16.338;2023-12-20T03:12:40;9.88;;;6.57;;
26858;SDS011;14429;48.346;16.338;2023-12-20T03:15:06;13.70;;;6.40;;
26858;SDS011;14429;48.346;16.338;2023-12-20T03:17:32;20.33;;;11.98;;
26858;SDS011;14429;48.346;16.338;2023-12-20T03:19:57;21.40;;;11.05;;
26858;SDS011;14429;48.346;16.338;2023-12-20T03:22:22;21.88;;;12.45;;
26858;SDS011;14429;48.346;16.338;2023-12-20T03:24:48;21.27;;;12.07;;
26858;SDS011;14429;48.346;16.338;2023-12-20T03:27:13;12.80;;;8.25;;
26858;SDS011;14429;48.346;16.338;2023-12-20T03:29:40;16.02;;;8.40;;
26858;SDS011;14429;48.346;16.338;2023-12-20T03:32:06;13.90;;;7.90;;
26858;SDS011;14429;48.346;16.338;2023-12-20T03:34:31;21.30;;;12.15;;
26858;SDS011;14429;48.346;16.338;2023-12-20T03:36:56;18.92;;;11.45;;
26858;SDS011;14429;48.346;16.338;2023-12-20T03:39:22;10.80;;;6.30;;
26858;SDS011;14429;48.346;16.338;2023-12-20T03:41:47;19.42;;;10.25;;
26858;SDS011;14429;48.346;16.338;2023-12-20T03:44:13;12.43;;;6.93;;
26858;SDS011;14429;48.346;16.338;2023-12-20T03:46:39;14.05;;;6.82;;
26858;SDS011;14429;48.346;16.338;2023-12-20T03:49:05;12.85;;;7.30;;
26858;SDS011;14429;48.346;16.338;2023-12-20T03:51:30;8.73;;;5.25;;
26858;SDS011;14429;48.346;16.338;2023-12-20T03:53:56;20.17;;;9.90;;
26858;SDS011;14429;48.346;16.338;2023-12-20T03:56:21;12.57;;;7.65;;
26858;SDS011;14429;48.346;16.338;2023-12-20T03:58:46;11.00;;;6.38;;
26858;SDS011;14429;48.346;16.338;2023-12-20T04:01:12;11.80;;;6.38;;
26858;SDS011;14429;48.346;16.338;2023-12-20T04:03:38;14.55;;;8.65;;
26858;SDS011;14429;48.346;16.338;2023-12-20T04:06:04;12.25;;;7.72;;
26858;SDS011;14429;48.346;16.338;2023-12-20T04:08:29;10.77;;;5.68;;
26858;SDS011;14429;48.346;16.338;2023-12-20T04:10:55;12.07;;;5.82;;
26858;SDS011;14429;48.346;16.338;2023-12-20T04:13:20;11.02;;;6.38;;
26858;SDS011;14429;48.346;16.338;2023-12-20T04:15:45;11.93;;;6.65;;
26858;SDS011;14429;48.346;16.338;2023-12-20T04:18:11;11.20;;;6.10;;
26858;SDS011;14429;48.346;16.338;2023-12-20T04:20:38;12.90;;;7.05;;
26858;SDS011;14429;48.346;16.338;2023-12-20T04:23:03;11.07;;;5.97;;
26858;SDS011;14429;48.346;16.338;2023-12-20T04:25:28;11.50;;;5.82;;
26858;SDS011;14429;48.346;16.338;2023-12-20T04:27:54;10.70;;;5.57;;
26858;SDS011;14429;48.346;16.338;2023-12-20T04:30:19;12.80;;;5.93;;
26858;SDS011;14429;48.346;16.338;2023-12-20T04:32:45;8.95;;;5.13;;
26858;SDS011;14429;48.346;16.338;2023-12-20T04:35:10;8.27;;;4.57;;
26858;SDS011;14429;48.346;16.338;2023-12-20T04:37:37;8.30;;;5.45;;
26858;SDS011;14429;48.346;16.338;2023-12-20T04:40:02;10.88;;;5.65;;
26858;SDS011;14429;48.346;16.338;2023-12-20T04:42:28;12.05;;;4.95;;
26858;SDS011;14429;48.346;16.338;2023-12-20T04:44:54;8.40;;;5.28;;
26858;SDS011;14429;48.346;16.338;2023-12-20T04:47:19;12.60;;;5.40;;
26858;SDS011;14429;48.346;16.338;2023-12-20T04:49:44;20.13;;;4.55;;
26858;SDS011;14429;48.346;16.338;2023-12-20T04:52:10;8.43;;;5.22;;
26858;SDS011;14429;48.346;16.338;2023-12-20T04:54:37;7.13;;;4.32;;
26858;SDS011;14429;48.346;16.338;2023-12-20T04:57:02;8.60;;;5.28;;
26858;SDS011;14429;48.346;16.338;2023-12-20T04:59:28;8.23;;;5.10;;
26858;SDS011;14429;48.346;16.338;2023-12-20T05:01:53;8.57;;;5.05;;
26858;SDS011;14429;48.346;16.338;2023-12-20T05:04:19;9.25;;;4.97;;
26858;SDS011;14429;48.346;16.338;2023-12-20T05:06:44;7.68;;;4.47;;
26858;SDS011;14429;48.346;16.338;2023-12-20T05:09:09;6.88;;;4.50;;
26858;SDS011;14429;48.346;16.338;2023-12-20T05:11:36;6.82;;;4.00;;
26858;SDS011;14429;48.346;16.338;2023-12-20T05:14:02;9.70;;;4.53;;
26858;SDS011;14429;48.346;16.338;2023-12-20T05:16:27;9.13;;;4.93;;
26858;SDS011;14429;48.346;16.338;2023-12-20T05:18:52;10.10;;;4.65;;
26858;SDS011;14429;48.346;16.338;2023-12-20T05:21:18;8.52;;;5.18;;
26858;SDS011;14429;48.346;16.338;2023-12-20T05:23:43;8.82;;;4.57;;
26858;SDS011;14429;48.346;16.338;2023-12-20T05:26:09;6.85;;;4.65;;
26858;SDS011;14429;48.346;16.338;2023-12-20T05:28:35;6.45;;;4.65;;
26858;SDS011;14429;48.346;16.338;2023-12-20T05:31:01;8.65;;;4.85;;
26858;SDS011;14429;48.346;16.338;2023-12-20T05:33:26;6.93;;;4.45;;
26858;SDS011;14429;48.346;16.338;2023-12-20T05:35:52;8.27;;;4.38;;
26858;SDS011;14429;48.346;16.338;2023-12-20T05:38:17;8.50;;;4.38;;
26858;SDS011;14429;48.346;16.338;2023-12-20T05:40:42;7.90;;;4.20;;
26858;SDS011;14429;48.346;16.338;2023-12-20T05:43:08;7.18;;;4.03;;
26858;SDS011;14429;48.346;16.338;2023-12-20T05:45:35;6.30;;;4.40;;
26858;SDS011;14429;48.346;16.338;2023-12-20T05:48:00;6.68;;;4.20;;
26858;SDS011;14429;48.346;16.338;2023-12-20T05:50:26;6.00;;;3.47;;
26858;SDS011;14429;48.346;16.338;2023-12-20T05:52:51;6.80;;;4.05;;
26858;SDS011;14429;48.346;16.338;2023-12-20T05:55:16;7.40;;;4.18;;
26858;SDS011;14429;48.346;16.338;2023-12-20T05:57:42;7.43;;;4.60;;
26858;SDS011;14429;48.346;16.338;2023-12-20T06:00:08;6.22;;;3.92;;
26858;SDS011;14429;48.346;16.338;2023-12-20T06:02:35;6.88;;;3.80;;
26858;SDS011;14429;48.346;16.338;2023-12-20T06:05:01;7.43;;;4.03;;
26858;SDS011;14429;48.346;16.338;2023-12-20T06:07:26;6.45;;;3.80;;
26858;SDS011;14429;48.346;16.338;2023-12-20T06:09:51;8.43;;;4.45;;
26858;SDS011;14429;48.346;16.338;2023-12-20T06:12:17;8.10;;;4.18;;
26858;SDS011;14429;48.346;16.338;2023-12-20T06:14:42;7.13;;;3.72;;
26858;SDS011;14429;48.346;16.338;2023-12-20T06:17:08;7.53;;;4.00;;
26858;SDS011;14429;48.346;16.338;2023-12-20T06:19:34;7.40;;;3.95;;
26858;SDS011;14429;48.346;16.338;2023-12-20T06:22:00;6.45;;;3.95;;
26858;SDS011;14429;48.346;16.338;2023-12-20T06:24:25;6.93;;;3.67;;
26858;SDS011;14429;48.346;16.338;2023-12-20T06:26:51;6.35;;;3.88;;
26858;SDS011;14429;48.346;16.338;2023-12-20T06:29:16;6.88;;;2.72;;
26858;SDS011;14429;48.346;16.338;2023-12-20T06:31:41;6.85;;;4.10;;
26858;SDS011;14429;48.346;16.338;2023-12-20T06:34:07;5.72;;;3.13;;
26858;SDS011;14429;48.346;16.338;2023-12-20T06:36:34;7.38;;;4.22;;
26858;SDS011;14429;48.346;16.338;2023-12-20T06:38:59;4.68;;;3.03;;
26858;SDS011;14429;48.346;16.338;2023-12-20T06:41:24;10.55;;;3.47;;
26858;SDS011;14429;48.346;16.338;2023-12-20T06:43:50;7.78;;;3.90;;
26858;SDS011;14429;48.346;16.338;2023-12-20T06:46:15;5.03;;;3.15;;
26858;SDS011;14429;48.346;16.338;2023-12-20T06:48:41;6.15;;;3.88;;
26858;SDS011;14429;48.346;16.338;2023-12-20T06:51:06;5.72;;;3.10;;
26858;SDS011;14429;48.346;16.338;2023-12-20T06:53:33;5.78;;;3.13;;
26858;SDS011;14429;48.346;16.338;2023-12-20T06:55:58;6.45;;;3.30;;
26858;SDS011;14429;48.346;16.338;2023-12-20T06:58:24;7.00;;;3.53;;
26858;SDS011;14429;48.346;16.338;2023-12-20T07:00:50;4.68;;;3.38;;
26858;SDS011;14429;48.346;16.338;2023-12-20T07:03:15;6.47;;;3.60;;
26858;SDS011;14429;48.346;16.338;2023-12-20T07:05:41;4.75;;;2.92;;
26858;SDS011;14429;48.346;16.338;2023-12-20T07:08:06;8.10;;;3.90;;
26858;SDS011;14429;48.346;16.338;2023-12-20T07:10:33;6.90;;;3.72;;
26858;SDS011;14429;48.346;16.338;2023-12-20T07:12:58;5.15;;;3.00;;
26858;SDS011;14429;48.346;16.338;2023-12-20T07:15:24;4.97;;;3.22;;
26858;SDS011;14429;48.346;16.338;2023-12-20T07:17:49;11.43;;;3.30;;
26858;SDS011;14429;48.346;16.338;2023-12-20T07:20:15;5.25;;;3.47;;
26858;SDS011;14429;48.346;16.338;2023-12-20T07:22:40;5.18;;;3.50;;
26858;SDS011;14429;48.346;16.338;2023-12-20T07:25:06;6.68;;;3.60;;
26858;SDS011;14429;48.346;16.338;2023-12-20T07:27:33;5.05;;;3.35;;
26858;SDS011;14429;48.346;16.338;2023-12-20T07:29:58;6.15;;;3.53;;
26858;SDS011;14429;48.346;16.338;2023-12-20T07:32:24;3.58;;;2.83;;
26858;SDS011;14429;48.346;16.338;2023-12-20T07:34:49;6.05;;;2.72;;
26858;SDS011;14429;48.346;16.338;2023-12-20T07:37:15;3.78;;;2.80;;
26858;SDS011;14429;48.346;16.338;2023-12-20T07:39:40;5.85;;;3.30;;
26858;SDS011;14429;48.346;16.338;2023-12-20T07:42:06;5.20;;;3.10;;
26858;SDS011;14429;48.346;16.338;2023-12-20T07:44:33;5.03;;;3.55;;
26858;SDS011;14429;48.346;16.338;2023-12-20T07:46:58;5.18;;;3.10;;
26858;SDS011;14429;48.346;16.338;2023-12-20T07:49:24;5.03;;;3.05;;
26858;SDS011;14429;48.346;16.338;2023-12-20T07:51:49;5.35;;;3.17;;
26858;SDS011;14429;48.346;16.338;2023-12-20T07:54:15;6.75;;;3.10;;
26858;SDS011;14429;48.346;16.338;2023-12-20T07:56:40;5.47;;;3.22;;
26858;SDS011;14429;48.346;16.338;2023-12-20T07:59:06;3.88;;;2.85;;
26858;SDS011;14429;48.346;16.338;2023-12-20T08:01:32;3.88;;;2.78;;
26858;SDS011;14429;48.346;16.338;2023-12-20T08:03:58;6.40;;;3.33;;
26858;SDS011;14429;48.346;16.338;2023-12-20T08:06:23;6.05;;;3.40;;
26858;SDS011;14429;48.346;16.338;2023-12-20T08:08:49;4.38;;;3.20;;
26858;SDS011;14429;48.346;16.338;2023-12-20T08:11:14;4.03;;;3.08;;
26858;SDS011;14429;48.346;16.338;2023-12-20T08:13:39;4.55;;;2.72;;
26858;SDS011;14429;48.346;16.338;2023-12-20T08:16:05;4.60;;;3.15;;
26858;SDS011;14429;48.346;16.338;2023-12-20T08:18:32;14.55;;;3.53;;
26858;SDS011;14429;48.346;16.338;2023-12-20T08:20:57;6.00;;;3.20;;
26858;SDS011;14429;48.346;16.338;2023-12-20T08:23:23;4.90;;;2.38;;
26858;SDS011;14429;48.346;16.338;2023-12-20T08:25:48;5.60;;;3.55;;
26858;SDS011;14429;48.346;16.338;2023-12-20T08:28:14;6.13;;;3.75;;
26858;SDS011;14429;48.346;16.338;2023-12-20T08:30:39;8.45;;;3.53;;
26858;SDS011;14429;48.346;16.338;2023-12-20T08:33:05;4.60;;;2.58;;
26858;SDS011;14429;48.346;16.338;2023-12-20T08:35:32;9.43;;;3.28;;
26858;SDS011;14429;48.346;16.338;2023-12-20T08:37:58;5.03;;;2.60;;
26858;SDS011;14429;48.346;16.338;2023-12-20T08:40:23;4.68;;;2.85;;
26858;SDS011;14429;48.346;16.338;2023-12-20T08:42:49;5.38;;;3.00;;
26858;SDS011;14429;48.346;16.338;2023-12-20T08:45:14;5.95;;;3.92;;
26858;SDS011;14429;48.346;16.338;2023-12-20T08:47:40;5.70;;;2.80;;
26858;SDS011;14429;48.346;16.338;2023-12-20T08:50:05;5.82;;;3.45;;
26858;SDS011;14429;48.346;16.338;2023-12-20T08:52:33;5.88;;;2.80;;
26858;SDS011;14429;48.346;16.338;2023-12-20T08:54:58;4.00;;;2.80;;
26858;SDS011;14429;48.346;16.338;2023-12-20T08:57:24;3.20;;;2.45;;
26858;SDS011;14429;48.346;16.338;2023-12-20T08:59:49;4.13;;;2.40;;
26858;SDS011;14429;48.346;16.338;2023-12-20T11:57:56;4.20;;;1.55;;
26858;SDS011;14429;48.346;16.338;2023-12-20T12:00:21;2.50;;;1.63;;
26858;SDS011;14429;48.346;16.338;2023-12-20T12:02:56;2.63;;;1.95;;
26858;SDS011;14429;48.346;16.338;2023-12-20T12:05:23;1.67;;;1.50;;
26858;SDS011;14429;48.346;16.338;2023-12-20T12:07:48;2.55;;;1.80;;
26858;SDS011;14429;48.346;16.338;2023-12-20T12:10:14;3.08;;;1.92;;
26858;SDS011;14429;48.346;16.338;2023-12-20T12:12:39;2.15;;;1.58;;
26858;SDS011;14429;48.346;16.338;2023-12-20T12:15:07;2.90;;;2.00;;
26858;SDS011;14429;48.346;16.338;2023-12-20T12:17:32;2.58;;;1.63;;
26858;SDS011;14429;48.346;16.338;2023-12-20T12:20:01;2.05;;;1.63;;
26858;SDS011;14429;48.346;16.338;2023-12-20T12:22:27;2.50;;;1.48;;
26858;SDS011;14429;48.346;16.338;2023-12-20T12:24:53;2.78;;;1.90;;
26858;SDS011;14429;48.346;16.338;2023-12-20T12:27:18;1.83;;;1.50;;
26858;SDS011;14429;48.346;16.338;2023-12-20T12:32:28;1.88;;;1.67;;
26858;SDS011;14429;48.346;16.338;2023-12-20T12:34:54;3.30;;;1.63;;
26858;SDS011;14429;48.346;16.338;2023-12-20T12:37:19;2.35;;;1.80;;
26858;SDS011;14429;48.346;16.338;2023-12-20T12:39:46;1.95;;;1.38;;
26858;SDS011;14429;48.346;16.338;2023-12-20T12:42:11;2.13;;;1.60;;
26858;SDS011;14429;48.346;16.338;2023-12-20T12:44:37;2.35;;;1.60;;
26858;SDS011;14429;48.346;16.338;2023-12-20T12:47:02;3.50;;;2.00;;
26858;SDS011;14429;48.346;16.338;2023-12-20T12:49:29;3.13;;;1.65;;
26858;SDS011;14429;48.346;16.338;2023-12-20T12:51:55;2.03;;;1.50;;
26858;SDS011;14429;48.346;16.338;2023-12-20T12:54:20;2.17;;;1.45;;
26858;SDS011;14429;48.346;16.338;2023-12-20T12:56:45;2.92;;;1.73;;
26858;SDS011;14429;48.346;16.338;2023-12-20T12:59:11;5.40;;;1.50;;
26858;SDS011;14429;48.346;16.338;2023-12-20T13:01:36;1.70;;;1.50;;
26858;SDS011;14429;48.346;16.338;2023-12-20T13:04:02;2.47;;;1.65;;
26858;SDS011;14429;48.346;16.338;2023-12-20T13:06:29;1.48;;;1.38;;
26858;SDS011;14429;48.346;16.338;2023-12-20T13:08:54;2.45;;;1.63;;
26858;SDS011;14429;48.346;16.338;2023-12-20T13:11:20;2.45;;;1.80;;
26858;SDS011;14429;48.346;16.338;2023-12-20T13:13:45;1.52;;;1.42;;
26858;SDS011;14429;48.346;16.338;2023-12-20T13:16:10;2.10;;;1.73;;
26858;SDS011;14429;48.346;16.338;2023-12-20T13:18:36;2.42;;;1.40;;
26858;SDS011;14429;48.346;16.338;2023-12-20T13:21:01;3.22;;;2.08;;
26858;SDS011;14429;48.346;16.338;2023-12-20T13:23:28;1.33;;;1.20;;
26858;SDS011;14429;48.346;16.338;2023-12-20T13:25:54;2.65;;;1.42;;
26858;SDS011;14429;48.346;16.338;2023-12-20T13:28:19;1.98;;;1.85;;
26858;SDS011;14429;48.346;16.338;2023-12-20T13:30:44;3.47;;;1.58;;
26858;SDS011;14429;48.346;16.338;2023-12-20T13:33:10;2.00;;;1.33;;
26858;SDS011;14429;48.346;16.338;2023-12-20T13:35:36;2.22;;;1.35;;
26858;SDS011;14429;48.346;16.338;2023-12-20T13:38:01;2.00;;;1.38;;
26858;SDS011;14429;48.346;16.338;2023-12-20T13:40:28;2.35;;;1.55;;
26858;SDS011;14429;48.346;16.338;2023-12-20T13:42:54;2.03;;;1.40;;
26858;SDS011;14429;48.346;16.338;2023-12-20T13:45:19;1.42;;;1.20;;
26858;SDS011;14429;48.346;16.338;2023-12-20T13:47:45;3.90;;;2.13;;
26858;SDS011;14429;48.346;16.338;2023-12-20T13:50:10;4.13;;;1.98;;
26858;SDS011;14429;48.346;16.338;2023-12-20T13:52:36;2.95;;;1.58;;
26858;SDS011;14429;48.346;16.338;2023-12-20T13:55:01;2.65;;;1.52;;
26858;SDS011;14429;48.346;16.338;2023-12-20T13:57:28;3.47;;;1.75;;
26858;SDS011;14429;48.346;16.338;2023-12-20T13:59:53;3.00;;;1.85;;
26858;SDS011;14429;48.346;16.338;2023-12-20T14:02:19;1.40;;;1.20;;
26858;SDS011;14429;48.346;16.338;2023-12-20T14:04:44;2.25;;;2.00;;
26858;SDS011;14429;48.346;16.338;2023-12-20T14:07:10;3.60;;;1.65;;
26858;SDS011;14429;48.346;16.338;2023-12-20T14:09:35;2.45;;;1.55;;
26858;SDS011;14429;48.346;16.338;2023-12-20T14:12:01;1.55;;;1.38;;
26858;SDS011;14429;48.346;16.338;2023-12-20T14:14:27;1.42;;;1.23;;
26858;SDS011;14429;48.346;16.338;2023-12-20T14:16:53;1.63;;;1.33;;
26858;SDS011;14429;48.346;16.338;2023-12-20T14:19:18;1.77;;;1.08;;
26858;SDS011;14429;48.346;16.338;2023-12-20T14:21:44;1.65;;;1.13;;
26858;SDS011;14429;48.346;16.338;2023-12-20T14:24:09;1.50;;;1.15;;
26858;SDS011;14429;48.346;16.338;2023-12-20T14:26:34;2.28;;;1.27;;
26858;SDS011;14429;48.346;16.338;2023-12-20T14:29:00;1.10;;;1.10;;
26858;SDS011;14429;48.346;16.338;2023-12-20T14:31:27;1.60;;;1.30;;
26858;SDS011;14429;48.346;16.338;2023-12-20T14:33:52;1.25;;;1.08;;
26858;SDS011;14429;48.346;16.338;2023-12-20T14:36:17;1.85;;;1.15;;
26858;SDS011;14429;48.346;16.338;2023-12-20T14:38:43;1.45;;;1.00;;
26858;SDS011;14429;48.346;16.338;2023-12-20T14:41:09;1.65;;;1.50;;
26858;SDS011;14429;48.346;16.338;2023-12-20T14:43:34;1.55;;;1.40;;
26858;SDS011;14429;48.346;16.338;2023-12-20T14:45:59;1.15;;;1.02;;
26858;SDS011;14429;48.346;16.338;2023-12-20T14:48:26;2.45;;;1.17;;
26858;SDS011;14429;48.346;16.338;2023-12-20T14:50:52;1.75;;;1.30;;
26858;SDS011;14429;48.346;16.338;2023-12-20T14:53:17;2.67;;;1.17;;
26858;SDS011;14429;48.346;16.338;2023-12-20T14:55:42;1.98;;;1.40;;
26858;SDS011;14429;48.346;16.338;2023-12-20T14:58:08;1.42;;;1.20;;
26858;SDS011;14429;48.346;16.338;2023-12-20T15:00:33;2.33;;;1.50;;
26858;SDS011;14429;48.346;16.338;2023-12-20T15:02:59;1.88;;;1.33;;
26858;SDS011;14429;48.346;16.338;2023-12-20T15:05:27;1.38;;;1.25;;
26858;SDS011;14429;48.346;16.338;2023-12-20T15:07:53;2.75;;;1.25;;
26858;SDS011;14429;48.346;16.338;2023-12-20T15:10:18;1.10;;;1.00;;
26858;SDS011;14429;48.346;16.338;2023-12-20T15:12:43;2.08;;;1.52;;
26858;SDS011;14429;48.346;16.338;2023-12-20T15:15:09;1.58;;;1.25;;
26858;SDS011;14429;48.346;16.338;2023-12-20T15:17:35;1.35;;;1.20;;
26858;SDS011;14429;48.346;16.338;2023-12-20T15:20:00;1.58;;;1.23;;
26858;SDS011;14429;48.346;16.338;2023-12-20T15:22:27;1.42;;;1.33;;
26858;SDS011;14429;48.346;16.338;2023-12-20T15:24:52;1.60;;;1.13;;
26858;SDS011;14429;48.346;16.338;2023-12-20T15:27:18;3.90;;;1.10;;
26858;SDS011;14429;48.346;16.338;2023-12-20T15:29:43;1.35;;;1.15;;
26858;SDS011;14429;48.346;16.338;2023-12-20T15:32:08;2.25;;;1.27;;
26858;SDS011;14429;48.346;16.338;2023-12-20T15:34:34;1.30;;;0.90;;
26858;SDS011;14429;48.346;16.338;2023-12-20T15:36:59;1.65;;;1.35;;
26858;SDS011;14429;48.346;16.338;2023-12-20T15:39:26;1.65;;;1.23;;
26858;SDS011;14429;48.346;16.338;2023-12-20T15:41:51;1.52;;;1.20;;
26858;SDS011;14429;48.346;16.338;2023-12-20T15:44:17;2.28;;;1.10;;
26858;SDS011;14429;48.346;16.338;2023-12-20T15:46:42;1.75;;;1.20;;
26858;SDS011;14429;48.346;16.338;2023-12-20T15:49:08;0.75;;;0.75;;
26858;SDS011;14429;48.346;16.338;2023-12-20T15:51:33;1.40;;;1.25;;
26858;SDS011;14429;48.346;16.338;2023-12-20T15:53:58;1.27;;;1.17;;
26858;SDS011;14429;48.346;16.338;2023-12-20T15:56:25;2.03;;;1.20;;
26858;SDS011;14429;48.346;16.338;2023-12-20T15:58:50;1.92;;;1.27;;
26858;SDS011;14429;48.346;16.338;2023-12-20T16:01:16;2.05;;;1.05;;
26858;SDS011;14429;48.346;16.338;2023-12-20T16:03:41;2.22;;;1.15;;
26858;SDS011;14429;48.346;16.338;2023-12-20T16:06:07;1.08;;;0.98;;
26858;SDS011;14429;48.346;16.338;2023-12-20T16:08:34;0.85;;;0.85;;
26858;SDS011;14429;48.346;16.338;2023-12-20T16:10:59;3.13;;;1.30;;
26858;SDS011;14429;48.346;16.338;2023-12-20T16:13:26;2.20;;;1.38;;
26858;SDS011;14429;48.346;16.338;2023-12-20T16:15:51;1.15;;;1.05;;
26858;SDS011;14429;48.346;16.338;2023-12-20T16:18:17;1.73;;;0.93;;
26858;SDS011;14429;48.346;16.338;2023-12-20T16:20:42;1.33;;;1.15;;
26858;SDS011;14429;48.346;16.338;2023-12-20T16:23:07;1.90;;;1.15;;
26858;SDS011;14429;48.346;16.338;2023-12-20T16:25:33;1.42;;;1.05;;
26858;SDS011;14429;48.346;16.338;2023-12-20T16:27:58;1.35;;;1.25;;
26858;SDS011;14429;48.346;16.338;2023-12-20T16:30:25;0.82;;;0.80;;
26858;SDS011;14429;48.346;16.338;2023-12-20T16:32:50;0.95;;;0.88;;
26858;SDS011;14429;48.346;16.338;2023-12-20T16:35:16;2.70;;;1.00;;
26858;SDS011;14429;48.346;16.338;2023-12-20T16:37:42;1.10;;;1.00;;
26858;SDS011;14429;48.346;16.338;2023-12-20T16:40:07;1.25;;;1.10;;
26858;SDS011;14429;48.346;16.338;2023-12-20T16:42:33;2.90;;;1.23;;
26858;SDS011;14429;48.346;16.338;2023-12-20T16:44:58;0.95;;;0.82;;
26858;SDS011;14429;48.346;16.338;2023-12-20T16:47:26;1.77;;;1.33;;
26858;SDS011;14429;48.346;16.338;2023-12-20T16:49:51;0.98;;;0.90;;
26858;SDS011;14429;48.346;16.338;2023-12-20T16:52:16;1.45;;;1.20;;
26858;SDS011;14429;48.346;16.338;2023-12-20T16:54:42;1.60;;;1.10;;
26858;SDS011;14429;48.346;16.338;2023-12-20T16:57:07;2.15;;;1.20;;
26858;SDS011;14429;48.346;16.338;2023-12-20T16:59:33;4.10;;;2.13;;
26858;SDS011;14429;48.346;16.338;2023-12-20T17:01:58;2.20;;;1.20;;
26858;SDS011;14429;48.346;16.338;2023-12-20T17:04:25;1.65;;;1.25;;
26858;SDS011;14429;48.346;16.338;2023-12-20T17:06:50;1.05;;;0.93;;
26858;SDS011;14429;48.346;16.338;2023-12-20T17:09:16;1.13;;;1.10;;
26858;SDS011;14429;48.346;16.338;2023-12-20T17:11:41;2.45;;;1.40;;
26858;SDS011;14429;48.346;16.338;2023-12-20T17:14:07;1.42;;;1.25;;
26858;SDS011;14429;48.346;16.338;2023-12-20T17:16:32;1.45;;;1.30;;
26858;SDS011;14429;48.346;16.338;2023-12-20T17:18:57;1.35;;;1.23;;